createdAt,value
2018-12-26T00:02:01.308Z,20.77
2018-12-26T00:04:31.186Z,20.57
2018-12-26T00:07:01.077Z,20.07
2018-12-26T00:09:32.077Z,22.20
2018-12-26T00:12:42.190Z,18.43
2018-12-26T00:15:12.286Z,19.53
2018-12-26T00:17:44.698Z,20.03
2018-12-26T00:20:14.579Z,22.67
2018-12-26T00:22:44.428Z,21.17
2018-12-26T00:25:14.351Z,16.67
2018-12-26T00:27:44.813Z,22.50
2018-12-26T00:30:14.775Z,19.50
2018-12-26T00:32:45.008Z,21.30
2018-12-26T00:35:15.257Z,17.20
2018-12-26T00:37:45.031Z,20.03
2018-12-26T00:40:15.330Z,20.43
2018-12-26T00:42:45.662Z,20.20
2018-12-26T00:45:16.363Z,22.07
2018-12-26T00:48:26.620Z,19.00
2018-12-26T00:50:56.881Z,20.50
2018-12-26T00:53:26.715Z,17.93
2018-12-26T00:55:56.546Z,18.03
2018-12-26T00:58:26.343Z,18.80
2018-12-26T01:00:56.101Z,20.33
2018-12-26T01:03:25.913Z,18.30
2018-12-26T01:05:55.691Z,20.33
2018-12-26T01:08:25.461Z,17.67
2018-12-26T01:10:55.395Z,19.30
2018-12-26T01:13:25.158Z,17.83
2018-12-26T01:15:54.918Z,17.73
2018-12-26T01:18:24.738Z,17.77
2018-12-26T01:20:54.620Z,16.80
2018-12-26T01:23:24.779Z,19.13
2018-12-26T01:25:54.628Z,17.57
2018-12-26T01:28:24.411Z,16.60
2018-12-26T01:30:54.290Z,19.10
2018-12-26T01:33:24.085Z,18.70
2018-12-26T01:35:56.099Z,17.33
2018-12-26T01:38:25.795Z,17.17
2018-12-26T01:40:57.326Z,17.27
2018-12-26T01:43:27.129Z,17.30
2018-12-26T01:45:56.903Z,16.63
2018-12-26T01:48:26.669Z,15.40
2018-12-26T01:50:56.415Z,14.30
2018-12-26T01:53:26.145Z,15.13
2018-12-26T01:55:56.409Z,15.37
2018-12-26T01:58:26.199Z,17.37
2018-12-26T02:00:56.341Z,14.83
2018-12-26T02:03:26.163Z,13.57
2018-12-26T02:05:56.336Z,16.43
2018-12-26T02:08:26.140Z,16.80
2018-12-26T02:10:57.712Z,15.43
2018-12-26T02:13:27.834Z,16.70
2018-12-26T02:15:59.880Z,15.73
2018-12-26T02:18:29.675Z,14.00
2018-12-26T02:21:00.132Z,13.77
2018-12-26T02:23:29.929Z,12.87
2018-12-26T02:26:00.206Z,14.00
2018-12-26T02:28:30.667Z,16.63
2018-12-26T02:31:00.461Z,14.10
2018-12-26T02:33:30.241Z,14.67
2018-12-26T02:36:00.470Z,15.83
2018-12-26T02:38:30.245Z,15.40
2018-12-26T02:41:00.371Z,15.77
2018-12-26T02:44:10.251Z,16.63
2018-12-26T02:46:40.453Z,16.83
2018-12-26T02:49:11.280Z,15.17
2018-12-26T02:51:42.015Z,14.87
2018-12-26T02:54:12.064Z,14.07
2018-12-26T02:56:47.744Z,16.33
2018-12-26T02:59:13.550Z,16.77
2018-12-26T03:01:43.950Z,15.40
2018-12-26T03:04:13.751Z,15.77
2018-12-26T03:06:43.592Z,15.13
2018-12-26T03:09:13.815Z,14.83
2018-12-26T03:11:43.727Z,14.10
2018-12-26T03:14:13.940Z,15.20
2018-12-26T03:16:43.779Z,15.60
2018-12-26T03:19:13.647Z,16.30
2018-12-26T03:21:43.801Z,13.93
2018-12-26T03:24:13.569Z,12.70
2018-12-26T03:29:50.113Z,11.60
2018-12-26T03:32:19.495Z,15.23
2018-12-26T03:34:48.878Z,14.70
2018-12-26T03:37:18.333Z,13.63
2018-12-26T03:39:47.710Z,13.93
2018-12-26T03:42:17.141Z,13.73
2018-12-26T03:44:46.801Z,13.27
2018-12-26T03:47:55.475Z,12.77
2018-12-26T03:50:24.963Z,13.80
2018-12-26T03:53:33.677Z,12.87
2018-12-26T03:56:03.065Z,11.83
2018-12-26T03:58:32.464Z,11.33
2018-12-26T04:01:20.885Z,12.10
2018-12-26T04:03:50.389Z,12.43
2018-12-26T04:06:59.109Z,11.63
2018-12-26T04:09:28.619Z,10.97
2018-12-26T04:11:58.064Z,12.37
2018-12-26T04:14:27.520Z,12.93
2018-12-26T04:16:56.916Z,10.43
2018-12-26T04:19:26.639Z,9.93
2018-12-26T04:21:56.125Z,11.03
2018-12-26T04:24:25.576Z,11.37
2018-12-26T04:26:55.021Z,10.40
2018-12-26T04:29:28.390Z,9.60
2018-12-26T04:31:57.826Z,10.73
2018-12-26T04:34:27.511Z,9.83
2018-12-26T04:37:36.242Z,10.47
2018-12-26T04:40:06.524Z,9.40
2018-12-26T04:42:36.212Z,9.53
2018-12-26T04:45:06.053Z,10.53
2018-12-26T04:47:35.451Z,8.90
2018-12-26T04:50:06.794Z,11.40
2018-12-26T04:52:36.535Z,10.30
2018-12-26T04:55:06.092Z,9.03
2018-12-26T04:57:35.422Z,8.27
2018-12-26T05:00:05.760Z,8.30
2018-12-26T05:02:35.132Z,8.47
2018-12-26T05:05:04.963Z,8.47
2018-12-26T05:07:34.642Z,9.10
2018-12-26T05:10:43.322Z,8.17
2018-12-26T05:13:13.232Z,6.90
2018-12-26T05:15:44.417Z,6.30
2018-12-26T05:18:13.705Z,7.70
2018-12-26T05:20:43.448Z,7.47
2018-12-26T05:23:12.907Z,8.03
2018-12-26T05:25:42.231Z,8.10
2018-12-26T05:28:11.444Z,8.30
2018-12-26T05:30:40.591Z,7.03
2018-12-26T05:33:09.804Z,6.50
2018-12-26T05:35:38.969Z,6.47
2018-12-26T05:38:08.155Z,6.63
2018-12-26T05:40:37.324Z,6.73
2018-12-26T05:43:06.795Z,7.37
2018-12-26T05:45:35.965Z,6.97
2018-12-26T05:48:05.151Z,6.00
2018-12-26T05:50:34.316Z,8.13
2018-12-26T05:53:03.510Z,6.67
2018-12-26T05:55:32.993Z,7.47
2018-12-26T05:58:02.185Z,7.43
2018-12-26T06:00:31.349Z,7.13
2018-12-26T06:03:00.785Z,8.17
2018-12-26T06:05:29.981Z,6.13
2018-12-26T06:07:59.162Z,6.13
2018-12-26T06:10:28.353Z,4.67
2018-12-26T06:12:57.521Z,5.77
2018-12-26T06:15:26.742Z,6.57
2018-12-26T06:17:55.909Z,5.30
2018-12-26T06:20:25.100Z,4.77
2018-12-26T06:22:54.262Z,6.50
2018-12-26T06:25:23.453Z,5.63
2018-12-26T06:27:52.631Z,5.67
2018-12-26T06:30:22.168Z,5.50
2018-12-26T06:32:51.367Z,5.73
2018-12-26T06:35:20.555Z,6.67
2018-12-26T06:37:49.721Z,6.70
2018-12-26T06:40:18.919Z,6.30
2018-12-26T06:42:48.089Z,8.13
2018-12-26T06:45:17.292Z,6.73
2018-12-26T06:47:46.543Z,8.20
2018-12-26T06:50:15.733Z,6.87
2018-12-26T06:52:44.900Z,7.33
2018-12-26T06:55:14.449Z,7.47
2018-12-26T06:57:43.627Z,6.23
2018-12-26T07:00:12.815Z,5.87
2018-12-26T07:02:41.979Z,6.47
2018-12-26T07:05:11.547Z,7.43
2018-12-26T07:07:41.049Z,5.97
2018-12-26T07:10:10.242Z,7.40
2018-12-26T07:12:39.758Z,8.60
2018-12-26T07:15:09.259Z,8.43
2018-12-26T07:17:38.431Z,7.27
2018-12-26T07:20:07.622Z,7.57
2018-12-26T07:22:36.789Z,7.70
2018-12-26T07:25:06.064Z,9.77
2018-12-26T07:27:35.232Z,9.40
2018-12-26T07:30:04.769Z,9.37
2018-12-26T07:32:33.960Z,8.63
2018-12-26T07:35:03.159Z,9.10
2018-12-26T07:37:32.333Z,10.67
2018-12-26T07:40:01.526Z,8.90
2018-12-26T07:42:30.752Z,9.73
2018-12-26T07:44:59.961Z,7.73
2018-12-26T07:47:29.126Z,9.07
2018-12-26T07:49:58.313Z,8.93
2018-12-26T07:52:27.482Z,9.77
2018-12-26T07:54:56.671Z,8.23
2018-12-26T07:57:25.836Z,8.50
2018-12-26T07:59:55.027Z,9.90
2018-12-26T08:02:24.523Z,8.33
2018-12-26T08:04:53.713Z,8.70
2018-12-26T08:07:22.880Z,10.47
2018-12-26T08:09:52.075Z,10.90
2018-12-26T08:12:21.237Z,9.03
2018-12-26T08:14:50.433Z,9.17
2018-12-26T08:17:19.602Z,10.00
2018-12-26T08:19:48.770Z,9.33
2018-12-26T08:22:17.965Z,10.33
2018-12-26T08:24:47.218Z,10.87
2018-12-26T08:27:16.411Z,10.03
2018-12-26T08:29:45.583Z,8.60
2018-12-26T08:32:14.773Z,9.17
2018-12-26T08:34:43.962Z,9.13
2018-12-26T08:37:13.498Z,12.30
2018-12-26T08:39:42.662Z,8.03
2018-12-26T08:42:31.053Z,8.67
2018-12-26T08:45:00.282Z,8.70
2018-12-26T08:47:29.417Z,7.60
2018-12-26T08:49:58.584Z,8.50
2018-12-26T08:52:27.777Z,8.23
2018-12-26T08:54:56.940Z,8.53
2018-12-26T08:57:26.423Z,6.37
2018-12-26T08:59:55.593Z,6.27
2018-12-26T09:02:24.794Z,5.47
2018-12-26T09:04:53.963Z,5.53
2018-12-26T09:07:23.149Z,5.67
2018-12-26T09:09:52.317Z,5.60
2018-12-26T09:12:21.585Z,5.90
2018-12-26T09:14:50.752Z,6.13
2018-12-26T09:17:19.938Z,5.90
2018-12-26T09:19:49.100Z,6.93
2018-12-26T09:22:18.295Z,5.40
2018-12-26T09:24:47.588Z,8.67
2018-12-26T09:27:16.781Z,6.40
2018-12-26T09:29:45.960Z,10.13
2018-12-26T09:32:15.331Z,6.63
2018-12-26T09:34:44.522Z,5.40
2018-12-26T09:37:13.705Z,5.17
2018-12-26T09:39:42.881Z,6.10
2018-12-26T09:42:12.363Z,4.60
2018-12-26T09:44:41.526Z,5.23
2018-12-26T09:47:10.720Z,5.10
2018-12-26T09:49:39.885Z,5.37
2018-12-26T09:52:09.080Z,4.37
2018-12-26T09:54:38.256Z,6.63
2018-12-26T09:57:07.419Z,6.67
2018-12-26T09:59:36.614Z,4.80
2018-12-26T10:02:05.781Z,6.80
2018-12-26T10:04:34.967Z,5.30
2018-12-26T10:07:04.480Z,4.73
2018-12-26T10:09:33.663Z,5.70
2018-12-26T10:12:03.167Z,5.83
2018-12-26T10:14:32.361Z,5.37
2018-12-26T10:17:01.536Z,5.07
2018-12-26T10:19:30.741Z,5.20
2018-12-26T10:21:59.902Z,5.60
2018-12-26T10:24:29.089Z,6.70
2018-12-26T10:26:58.260Z,5.90
2018-12-26T10:29:27.457Z,5.73
2018-12-26T10:31:56.958Z,5.80
2018-12-26T10:34:26.191Z,6.80
2018-12-26T10:36:55.387Z,6.40
2018-12-26T10:39:24.729Z,6.13
2018-12-26T10:41:53.946Z,4.87
2018-12-26T10:44:23.147Z,4.73
2018-12-26T10:46:52.429Z,4.67
2018-12-26T10:49:21.954Z,17.40
2018-12-26T10:51:51.124Z,5.30
2018-12-26T10:54:20.326Z,4.53
2018-12-26T10:56:49.491Z,5.17
2018-12-26T10:59:18.698Z,5.00
2018-12-26T11:01:48.245Z,4.23
2018-12-26T11:04:17.432Z,5.17
2018-12-26T11:06:46.620Z,5.07
2018-12-26T11:09:16.145Z,6.10
2018-12-26T11:11:45.345Z,5.27
2018-12-26T11:14:14.544Z,5.13
2018-12-26T11:16:43.721Z,4.70
2018-12-26T11:19:12.917Z,5.53
2018-12-26T11:21:42.176Z,4.70
2018-12-26T11:24:11.379Z,4.77
2018-12-26T11:26:40.550Z,5.77
2018-12-26T11:29:18.347Z,6.90
2018-12-26T11:31:40.900Z,6.13
2018-12-26T11:34:10.518Z,5.60
2018-12-26T11:36:39.786Z,6.30
2018-12-26T11:39:08.966Z,7.10
2018-12-26T11:41:38.565Z,8.73
2018-12-26T11:44:07.724Z,9.57
2018-12-26T11:46:36.933Z,9.83
2018-12-26T11:49:06.167Z,8.83
2018-12-26T11:51:35.423Z,8.37
2018-12-26T11:54:04.668Z,9.23
2018-12-26T11:56:33.882Z,10.10
2018-12-26T11:59:04.035Z,10.47
2018-12-26T12:01:33.605Z,11.43
2018-12-26T12:04:21.857Z,10.90
2018-12-26T12:06:51.435Z,10.97
2018-12-26T12:09:20.621Z,9.90
2018-12-26T12:11:49.854Z,10.47
2018-12-26T12:14:19.347Z,10.93
2018-12-26T12:16:48.546Z,13.70
2018-12-26T12:19:17.718Z,12.90
2018-12-26T12:21:46.915Z,11.63
2018-12-26T12:24:16.794Z,12.97
2018-12-26T12:26:46.008Z,13.97
2018-12-26T12:29:15.246Z,13.70
2018-12-26T12:31:44.754Z,15.70
2018-12-26T12:34:13.959Z,14.07
2018-12-26T12:36:43.167Z,13.60
2018-12-26T12:39:12.380Z,12.63
2018-12-26T12:41:41.622Z,13.60
2018-12-26T12:44:10.903Z,14.57
2018-12-26T12:46:40.116Z,15.03
2018-12-26T12:49:09.319Z,13.20
2018-12-26T12:51:38.518Z,12.23
2018-12-26T12:54:07.710Z,13.97
2018-12-26T12:56:36.906Z,14.47
2018-12-26T12:59:06.087Z,16.17
2018-12-26T13:01:35.281Z,14.43
2018-12-26T13:04:04.491Z,15.00
2018-12-26T13:06:34.032Z,13.60
2018-12-26T13:11:42.959Z,14.90
2018-12-26T13:14:12.217Z,13.97
2018-12-26T13:16:41.452Z,14.90
2018-12-26T13:19:10.637Z,14.63
2018-12-26T13:21:39.843Z,13.37
2018-12-26T13:24:09.040Z,14.27
2018-12-26T13:26:38.255Z,12.53
2018-12-26T13:29:07.444Z,14.80
2018-12-26T13:31:36.793Z,14.03
2018-12-26T13:34:06.030Z,15.10
2018-12-26T13:36:35.228Z,14.30
2018-12-26T13:41:59.187Z,15.50
2018-12-26T13:44:28.365Z,17.47
2018-12-26T13:46:57.582Z,15.53
2018-12-26T13:49:26.767Z,13.90
2018-12-26T13:51:55.948Z,14.80
2018-12-26T13:54:44.155Z,15.57
2018-12-26T13:57:13.332Z,15.23
2018-12-26T13:59:42.539Z,15.17
2018-12-26T14:02:11.735Z,13.90
2018-12-26T14:04:40.935Z,15.53
2018-12-26T14:07:10.126Z,13.23
2018-12-26T14:09:39.339Z,14.37
2018-12-26T14:12:08.552Z,15.13
2018-12-26T14:14:37.772Z,14.27
2018-12-26T14:17:07.275Z,14.77
2018-12-26T14:19:36.493Z,15.47
2018-12-26T14:22:05.690Z,13.97
2018-12-26T14:24:34.920Z,15.53
2018-12-26T14:27:04.111Z,18.33
2018-12-26T14:29:33.457Z,17.37
2018-12-26T14:32:02.625Z,15.60
2018-12-26T14:34:32.196Z,14.73
2018-12-26T14:37:01.403Z,15.23
2018-12-26T14:39:31.035Z,15.90
2018-12-26T14:42:00.252Z,16.73
2018-12-26T14:44:29.455Z,15.53
2018-12-26T14:46:58.965Z,15.73
2018-12-26T14:49:28.653Z,15.13
2018-12-26T14:51:57.883Z,16.50
2018-12-26T14:54:27.094Z,15.90
2018-12-26T14:56:56.304Z,18.70
2018-12-26T14:59:26.368Z,17.03
2018-12-26T15:01:55.894Z,17.23
2018-12-26T15:04:25.100Z,17.60
2018-12-26T15:06:54.904Z,18.37
2018-12-26T15:09:24.088Z,19.03
2018-12-26T15:11:53.305Z,17.93
2018-12-26T15:14:23.167Z,16.10
2018-12-26T15:16:52.349Z,18.57
2018-12-26T15:19:21.863Z,16.50
2018-12-26T15:21:51.044Z,18.87
2018-12-26T15:24:20.944Z,17.00
2018-12-26T15:26:50.121Z,17.07
2018-12-26T15:29:19.338Z,20.17
2018-12-26T15:31:48.524Z,18.27
2018-12-26T15:34:17.732Z,17.57
2018-12-26T15:36:46.930Z,17.57
2018-12-26T15:39:16.114Z,19.10
2018-12-26T15:41:45.346Z,19.20
2018-12-26T15:44:14.527Z,20.83
2018-12-26T15:46:43.765Z,17.67
2018-12-26T15:49:12.953Z,17.77
2018-12-26T15:51:42.511Z,18.00
2018-12-26T15:54:11.689Z,18.03
2018-12-26T15:56:41.489Z,18.77
2018-12-26T15:59:10.732Z,18.47
2018-12-26T16:01:42.055Z,20.17
2018-12-26T16:04:11.318Z,18.77
2018-12-26T16:06:40.581Z,20.87
2018-12-26T16:09:09.822Z,20.87
2018-12-26T16:11:39.484Z,20.57
2018-12-26T16:14:08.718Z,22.90
2018-12-26T16:16:37.932Z,19.60
2018-12-26T16:19:07.160Z,19.20
2018-12-26T16:21:36.366Z,19.70
2018-12-26T16:24:05.673Z,21.37
2018-12-26T16:26:34.872Z,18.07
2018-12-26T16:29:04.288Z,18.87
2018-12-26T16:31:33.512Z,22.67
2018-12-26T16:34:02.764Z,22.07
2018-12-26T16:36:32.968Z,20.27
2018-12-26T16:39:02.224Z,19.37
2018-12-26T16:41:31.437Z,20.33
2018-12-26T16:44:00.673Z,20.63
2018-12-26T16:46:29.941Z,22.50
2018-12-26T16:49:00.283Z,24.53
2018-12-26T16:51:29.513Z,25.20
2018-12-26T16:53:59.249Z,22.60
2018-12-26T16:56:28.591Z,23.70
2018-12-26T16:58:57.867Z,22.20
2018-12-26T17:01:27.086Z,20.20
2018-12-26T17:03:56.416Z,19.60
2018-12-26T17:06:25.661Z,22.43
2018-12-26T17:08:55.330Z,21.17
2018-12-26T17:11:24.539Z,20.93
2018-12-26T17:13:53.722Z,21.87
2018-12-26T17:16:23.021Z,21.67
2018-12-26T17:18:52.330Z,20.67
2018-12-26T17:21:21.610Z,19.77
2018-12-26T17:23:50.845Z,22.67
2018-12-26T17:26:21.194Z,21.63
2018-12-26T17:31:59.077Z,24.47
2018-12-26T17:34:28.283Z,22.63
2018-12-26T17:36:57.508Z,22.43
2018-12-26T17:39:26.721Z,23.20
2018-12-26T17:41:55.962Z,22.83
2018-12-26T17:44:26.336Z,20.87
2018-12-26T17:46:55.553Z,19.60
2018-12-26T17:49:24.740Z,19.40
2018-12-26T17:51:53.958Z,23.07
2018-12-26T17:55:01.219Z,21.77
2018-12-26T17:57:35.299Z,21.03
2018-12-26T18:00:42.629Z,21.80
2018-12-26T18:03:12.134Z,21.60
2018-12-26T18:05:41.670Z,21.63
2018-12-26T18:08:10.889Z,20.57
2018-12-26T18:10:40.135Z,23.17
2018-12-26T18:13:09.347Z,22.23
2018-12-26T18:15:38.535Z,20.27
2018-12-26T18:18:08.633Z,21.73
2018-12-26T18:20:37.821Z,21.43
2018-12-26T18:23:07.033Z,24.70
2018-12-26T18:25:36.602Z,27.40
2018-12-26T18:28:05.808Z,21.47
2018-12-26T18:30:35.130Z,22.13
2018-12-26T18:33:04.360Z,24.90
2018-12-26T18:35:34.496Z,25.17
2018-12-26T18:38:03.768Z,24.77
2018-12-26T18:40:33.192Z,23.90
2018-12-26T18:43:04.357Z,23.23
2018-12-26T18:45:33.604Z,23.93
2018-12-26T18:48:03.152Z,26.37
2018-12-26T18:50:33.596Z,25.10
2018-12-26T18:53:02.810Z,30.20
2018-12-26T18:55:32.476Z,32.30
2018-12-26T18:58:01.693Z,28.33
2018-12-26T19:00:30.879Z,31.93
2018-12-26T19:03:00.101Z,30.23
2018-12-26T19:05:29.286Z,30.33
2018-12-26T19:07:58.593Z,31.80
2018-12-26T19:10:27.796Z,32.53
2018-12-26T19:12:56.975Z,30.53
2018-12-26T19:15:26.468Z,30.23
2018-12-26T19:17:55.674Z,28.73
2018-12-26T19:20:25.162Z,25.50
2018-12-26T19:23:13.610Z,24.53
2018-12-26T19:25:42.835Z,23.70
2018-12-26T19:28:12.362Z,26.63
2018-12-26T19:30:41.582Z,26.53
2018-12-26T19:33:11.134Z,25.43
2018-12-26T19:35:40.338Z,25.37
2018-12-26T19:38:09.687Z,24.43
2018-12-26T19:40:38.898Z,26.37
2018-12-26T19:43:08.639Z,30.23
2018-12-26T19:45:40.127Z,28.83
2018-12-26T19:48:09.087Z,23.40
2018-12-26T19:53:15.036Z,28.77
2018-12-26T19:55:45.569Z,24.63
2018-12-26T19:58:14.755Z,29.63
2018-12-26T20:00:44.107Z,27.47
2018-12-26T20:03:13.322Z,28.10
2018-12-26T20:05:42.670Z,26.73
2018-12-26T20:08:14.340Z,33.63
2018-12-26T20:10:43.815Z,27.10
2018-12-26T20:13:13.048Z,26.70
2018-12-26T20:15:42.319Z,25.60
2018-12-26T20:18:11.620Z,26.83
2018-12-26T20:20:41.340Z,28.47
2018-12-26T20:23:11.032Z,27.07
2018-12-26T20:25:40.295Z,26.10
2018-12-26T20:31:05.539Z,24.70
2018-12-26T20:33:34.831Z,27.60
2018-12-26T20:36:04.149Z,23.73
2018-12-26T20:38:33.457Z,27.17
2018-12-26T20:41:02.748Z,26.73
2018-12-26T20:43:32.602Z,26.57
2018-12-26T20:46:21.301Z,24.23
2018-12-26T20:51:40.504Z,25.13
2018-12-26T20:54:09.910Z,29.20
2018-12-26T20:56:39.926Z,29.60
2018-12-26T20:59:09.125Z,29.37
2018-12-26T21:01:38.591Z,30.87
2018-12-26T21:04:07.802Z,27.77
2018-12-26T21:06:51.204Z,32.30
2018-12-26T21:09:08.449Z,30.23
2018-12-26T21:11:38.197Z,28.53
2018-12-26T21:14:07.688Z,29.03
2018-12-26T21:16:55.966Z,28.23
2018-12-26T21:19:27.333Z,28.17
2018-12-26T21:21:56.684Z,30.23
2018-12-26T21:24:25.911Z,28.83
2018-12-26T21:26:55.245Z,30.13
2018-12-26T21:29:24.482Z,29.47
2018-12-26T21:31:53.901Z,29.43
2018-12-26T21:34:23.269Z,30.97
2018-12-26T21:36:52.563Z,33.53
2018-12-26T21:39:21.967Z,32.63
2018-12-26T21:41:51.225Z,27.67
2018-12-26T21:44:20.474Z,30.27
2018-12-26T21:46:49.701Z,29.70
2018-12-26T21:49:18.897Z,28.60
2018-12-26T21:51:48.115Z,30.17
2018-12-26T21:54:17.288Z,31.70
2018-12-26T21:56:46.888Z,30.57
2018-12-26T21:59:16.468Z,31.33
2018-12-26T22:01:45.661Z,30.57
2018-12-26T22:04:14.861Z,30.53
2018-12-26T22:06:44.407Z,32.03
2018-12-26T22:09:13.628Z,29.60
2018-12-26T22:12:01.808Z,32.70
2018-12-26T22:14:31.347Z,28.77
2018-12-26T22:17:00.544Z,33.17
2018-12-26T22:19:29.767Z,27.83
2018-12-26T22:21:58.952Z,31.33
2018-12-26T22:24:47.159Z,25.83
2018-12-26T22:27:16.335Z,31.53
2018-12-26T22:29:45.888Z,27.93
2018-12-26T22:32:15.091Z,27.97
2018-12-26T22:34:44.297Z,27.07
2018-12-26T22:37:13.510Z,30.70
2018-12-26T22:39:42.684Z,29.07
2018-12-26T22:42:11.890Z,28.43
2018-12-26T22:44:41.077Z,31.20
2018-12-26T22:47:10.285Z,27.33
2018-12-26T22:49:39.461Z,29.13
2018-12-26T22:52:08.647Z,28.10
2018-12-26T22:54:37.858Z,29.00
2018-12-26T22:57:07.075Z,27.73
2018-12-26T22:59:36.285Z,30.67
2018-12-26T23:02:05.539Z,27.90
2018-12-26T23:04:34.772Z,29.87
2018-12-26T23:07:03.955Z,30.83
2018-12-26T23:09:33.134Z,26.80
2018-12-26T23:12:02.641Z,29.27
2018-12-26T23:14:31.833Z,29.90
2018-12-26T23:17:01.046Z,26.87
2018-12-26T23:19:30.226Z,31.27
2018-12-26T23:21:59.410Z,30.53
2018-12-26T23:24:28.610Z,28.93
2018-12-26T23:26:57.790Z,31.63
2018-12-26T23:29:26.991Z,33.83
2018-12-26T23:31:56.172Z,29.20
2018-12-26T23:34:25.458Z,29.50
2018-12-26T23:36:54.665Z,33.47
2018-12-26T23:39:23.865Z,29.60
2018-12-26T23:41:53.439Z,30.63
2018-12-26T23:44:22.612Z,26.70
2018-12-26T23:46:51.817Z,27.30
2018-12-26T23:49:21.007Z,31.73
2018-12-26T23:51:50.191Z,31.50
2018-12-26T23:54:19.378Z,29.67
2018-12-26T23:56:48.586Z,30.97
2018-12-26T23:59:17.792Z,27.37
